Time;durP1;ratioP1;P1;durP2;ratioP2;P2;SDS_P1;SDS_P2;PMS_P1;PMS_P2;Temp;Humidity;BMP_temperature;BMP_pressure;BME280_temperature;BME280_humidity;BME280_pressure;Samples;Min_cycle;Max_cycle;Signal;HPM_P1;HPM_P2
2022/07/27 00:00:39;;;;;;;0.52;0.52;;;;;;;18.79;48.50;101348.41;5194677;28;20387;-78
2022/07/27 00:03:09;;;;;;;0.30;0.30;;;;;;;18.80;48.70;101350.09;5226325;28;20042;-79
2022/07/27 00:05:42;;;;;;;0.10;0.10;;;;;;;18.80;48.49;101349.25;5226556;28;20049;-80
2022/07/27 00:08:13;;;;;;;0.20;0.20;;;;;;;18.78;48.63;101341.38;5228567;28;20028;-80
2022/07/27 00:10:43;;;;;;;0.20;0.20;;;;;;;18.77;48.86;101341.44;5230080;28;20344;-79
2022/07/27 00:13:17;;;;;;;0.52;0.52;;;;;;;18.69;49.29;101341.84;5227558;28;20132;-79
2022/07/27 00:15:48;;;;;;;0.30;0.30;;;;;;;18.78;49.09;101345.81;5227384;28;20040;-80
2022/07/27 00:18:19;;;;;;;0.20;0.20;;;;;;;18.71;49.52;101337.31;5230322;28;20031;-80
2022/07/27 00:20:49;;;;;;;0.32;0.32;;;;;;;18.74;49.19;101346.94;5204115;28;20356;-78
2022/07/27 00:23:20;;;;;;;0.20;0.20;;;;;;;18.71;49.26;101340.81;5233204;28;20119;-79
2022/07/27 00:25:51;;;;;;;0.40;0.40;;;;;;;18.67;49.44;101349.91;5228508;28;20041;-80
2022/07/27 00:28:21;;;;;;;0.20;0.20;;;;;;;18.69;49.02;101347.16;5214579;28;20020;-79
2022/07/27 00:30:51;;;;;;;0.28;0.28;;;;;;;18.65;49.27;101345.59;5211815;28;20248;-78
2022/07/27 00:33:22;;;;;;;0.70;0.60;;;;;;;18.64;49.30;101349.19;5215254;28;20120;-79
2022/07/27 00:35:52;;;;;;;0.30;0.30;;;;;;;18.62;49.31;101343.94;5209064;28;20052;-78
2022/07/27 00:38:23;;;;;;;0.30;0.30;;;;;;;18.61;49.21;101344.03;5227553;28;20041;-79
2022/07/27 00:40:54;;;;;;;1.77;1.42;;;;;;;18.63;49.37;101345.66;5227465;28;20092;-80
2022/07/27 00:43:25;;;;;;;0.20;0.20;;;;;;;18.56;49.85;101355.75;5243656;28;20542;-80
2022/07/27 00:45:55;;;;;;;0.20;0.20;;;;;;;18.58;49.34;101349.50;5235255;28;20578;-79
2022/07/27 00:48:27;;;;;;;0.30;0.30;;;;;;;18.56;49.30;101347.78;5234470;28;20063;-79
2022/07/27 00:50:58;;;;;;;0.20;0.20;;;;;;;18.55;49.61;101350.53;5233792;28;20043;-80
2022/07/27 00:53:33;;;;;;;0.30;0.30;;;;;;;18.55;49.52;101345.19;5219634;28;20071;-78
2022/07/27 00:56:04;;;;;;;0.20;0.20;;;;;;;18.53;49.29;101339.97;5226179;28;20044;-79
2022/07/27 00:58:38;;;;;;;0.20;0.20;;;;;;;18.54;49.79;101333.72;5215464;28;20032;-80
2022/07/27 01:01:09;;;;;;;0.20;0.20;;;;;;;18.52;49.40;101343.56;5229404;28;20051;-79
2022/07/27 01:03:39;;;;;;;0.22;0.22;;;;;;;18.48;49.63;101346.44;5230672;28;20029;-79
2022/07/27 01:06:13;;;;;;;0.20;0.20;;;;;;;18.48;49.49;101344.66;5231427;28;20067;-79
2022/07/27 01:08:44;;;;;;;0.20;0.20;;;;;;;18.47;49.71;101353.56;5216852;28;20033;-80
2022/07/27 01:11:15;;;;;;;0.20;0.20;;;;;;;18.45;49.43;101350.13;5237436;28;20094;-80
2022/07/27 01:13:45;;;;;;;5.15;1.75;;;;;;;18.43;49.55;101356.47;5234846;28;20077;-80
2022/07/27 01:16:17;;;;;;;0.35;0.35;;;;;;;18.45;49.62;101349.25;5236657;28;20063;-80
2022/07/27 01:18:47;;;;;;;0.40;0.40;;;;;;;18.42;49.54;101342.31;5212451;28;20025;-78
2022/07/27 01:21:20;;;;;;;9.13;1.05;;;;;;;18.39;49.93;101339.78;5214131;28;20063;-79
2022/07/27 01:23:51;;;;;;;0.20;0.20;;;;;;;18.39;49.71;101338.00;5213198;28;20491;-79
2022/07/27 01:26:22;;;;;;;0.30;0.30;;;;;;;18.39;49.55;101345.09;5230139;28;20051;-78
2022/07/27 01:29:00;;;;;;;0.20;0.20;;;;;;;18.37;49.75;101342.53;5231036;28;20037;-79
2022/07/27 01:31:30;;;;;;;0.28;0.28;;;;;;;18.32;49.98;101341.03;5232493;28;20057;-80
2022/07/27 01:34:03;;;;;;;0.32;0.32;;;;;;;18.30;50.21;101340.28;5233762;28;20311;-80
2022/07/27 01:36:34;;;;;;;0.20;0.20;;;;;;;18.29;49.83;101339.41;5217523;28;20091;-80
2022/07/27 01:39:04;;;;;;;0.40;0.40;;;;;;;18.30;49.66;101335.81;5219597;28;20531;-80
2022/07/27 01:41:35;;;;;;;0.30;0.30;;;;;;;18.23;50.18;101337.91;5234495;28;20112;-80
2022/07/27 01:44:05;;;;;;;0.30;0.30;;;;;;;18.24;50.10;101333.47;5217273;28;20134;-79
2022/07/27 01:46:36;;;;;;;3.75;0.55;;;;;;;18.19;50.47;101333.69;5234847;28;20434;-80
2022/07/27 01:49:06;;;;;;;0.52;0.52;;;;;;;18.21;50.27;101334.50;5235616;28;20036;-80
2022/07/27 01:51:37;;;;;;;0.30;0.30;;;;;;;18.19;50.58;101330.16;5233829;28;20581;-80
2022/07/27 01:54:10;;;;;;;;;;;;;;;18.15;50.56;101331.25;5237350;28;20021;-80
2022/07/27 01:56:41;;;;;;;0.85;0.55;;;;;;;18.17;50.38;101329.41;5236644;28;19935;-80
2022/07/27 01:59:12;;;;;;;0.30;0.30;;;;;;;18.13;50.45;101338.44;5216470;28;20068;-80
2022/07/27 02:01:43;;;;;;;0.22;0.22;;;;;;;18.10;50.37;101331.50;5234803;28;20228;-80
2022/07/27 02:04:13;;;;;;;0.55;0.40;;;;;;;18.06;50.71;101332.56;5202210;28;20025;-80
2022/07/27 02:06:44;;;;;;;0.60;0.60;;;;;;;18.04;50.54;101334.44;5235549;28;20056;-80
2022/07/27 02:09:14;;;;;;;0.20;0.20;;;;;;;18.02;50.52;101333.66;5234661;28;20135;-80
2022/07/27 02:14:50;;;;;;;0.30;0.30;;;;;;;17.98;50.63;101340.03;5158856;28;20049;-80
2022/07/27 02:17:21;;;;;;;0.40;0.40;;;;;;;17.93;50.36;101333.13;5200623;28;20052;-80
2022/07/27 02:19:51;;;;;;;0.20;0.20;;;;;;;17.94;50.56;101339.28;5234244;28;20077;-80
2022/07/27 02:22:22;;;;;;;0.40;0.40;;;;;;;17.89;50.36;101336.84;5236536;28;20396;-80
2022/07/27 02:24:55;;;;;;;;;;;;;;;17.87;50.65;101337.88;5200630;28;20087;-80
2022/07/27 02:27:26;;;;;;;0.40;0.40;;;;;;;17.86;50.30;101334.38;5235656;28;19967;-80
2022/07/27 02:29:59;;;;;;;0.20;0.20;;;;;;;17.82;50.38;101327.47;5223920;28;20445;-79
2022/07/27 02:32:29;;;;;;;0.30;0.30;;;;;;;17.84;50.85;101327.41;5235702;28;20102;-80
2022/07/27 02:35:00;;;;;;;0.30;0.30;;;;;;;17.76;50.75;101325.13;5233611;28;20128;-80
2022/07/27 02:37:31;;;;;;;0.15;0.15;;;;;;;17.73;50.66;101335.88;5234355;28;20040;-80
2022/07/27 02:40:01;;;;;;;0.32;0.30;;;;;;;17.70;51.67;101333.38;5235215;28;20040;-79
2022/07/27 02:42:35;;;;;;;0.77;0.77;;;;;;;17.66;50.87;101332.66;5234020;28;20037;-80
2022/07/27 02:45:05;;;;;;;0.40;0.40;;;;;;;17.66;52.04;101334.44;5233370;28;20075;-80
2022/07/27 02:47:38;;;;;;;0.20;0.20;;;;;;;17.62;51.06;101329.31;5221374;28;20088;-80
2022/07/27 02:50:10;;;;;;;0.20;0.20;;;;;;;17.57;52.13;101331.28;5237837;28;20384;-80
2022/07/27 02:52:40;;;;;;;0.30;0.30;;;;;;;17.53;52.13;101332.38;5202278;28;20060;-80
2022/07/27 02:55:11;;;;;;;0.20;0.20;;;;;;;17.45;52.61;101337.19;5217337;28;20060;-80
2022/07/27 02:57:42;;;;;;;0.20;0.20;;;;;;;17.47;51.60;101340.63;5233689;28;20045;-80
2022/07/27 03:00:14;;;;;;;0.30;0.30;;;;;;;17.39;51.52;101338.31;5231395;28;20481;-80
2022/07/27 03:02:48;;;;;;;0.40;0.40;;;;;;;17.39;51.43;101343.63;5215544;28;20653;-80
2022/07/27 03:05:18;;;;;;;0.25;0.25;;;;;;;17.38;52.06;101338.41;5232646;28;20070;-80
2022/07/27 03:07:49;;;;;;;3.17;0.35;;;;;;;17.38;51.61;101343.72;5217585;28;20059;-80
2022/07/27 03:10:19;;;;;;;0.30;0.30;;;;;;;17.33;52.05;101343.03;5214451;28;20048;-80
2022/07/27 03:12:50;;;;;;;0.20;0.20;;;;;;;17.24;52.34;101345.19;5216007;28;20272;-80
2022/07/27 03:15:20;;;;;;;0.70;0.70;;;;;;;17.23;51.73;101342.59;5230254;28;20044;-80
2022/07/27 03:17:51;;;;;;;0.30;0.30;;;;;;;17.20;52.54;101343.59;5214720;28;20036;-80
2022/07/27 03:20:21;;;;;;;0.30;0.30;;;;;;;17.17;52.15;101338.44;5214365;28;20040;-80
2022/07/27 03:22:55;;;;;;;0.20;0.20;;;;;;;17.11;52.14;101349.31;5231711;28;20043;-79
2022/07/27 03:25:31;;;;;;;0.30;0.30;;;;;;;17.10;52.10;101335.22;5227688;28;20060;-80
2022/07/27 03:28:02;;;;;;;0.20;0.20;;;;;;;17.06;52.94;101343.38;5232141;28;20505;-80
2022/07/27 03:30:33;;;;;;;1.13;1.05;;;;;;;17.08;52.07;101341.50;5214785;28;20045;-80
2022/07/27 03:33:03;;;;;;;0.20;0.20;;;;;;;17.01;52.07;101343.56;5210394;28;20386;-81
2022/07/27 03:35:36;;;;;;;3.72;0.82;;;;;;;17.01;52.47;101345.34;5214252;28;20052;-80
2022/07/27 03:38:07;;;;;;;0.60;0.60;;;;;;;16.94;52.64;101340.31;5199205;28;20123;-80
2022/07/27 03:40:39;;;;;;;0.20;0.20;;;;;;;16.92;52.39;101344.78;5233242;28;20108;-80
2022/07/27 03:43:10;;;;;;;0.30;0.30;;;;;;;16.88;52.02;101342.34;5232255;28;20178;-80
2022/07/27 03:45:40;;;;;;;0.22;0.22;;;;;;;16.85;52.20;101343.34;5227542;28;20503;-80
2022/07/27 03:48:11;;;;;;;0.20;0.20;;;;;;;16.80;53.57;101350.66;5212307;28;20040;-80
2022/07/27 03:50:41;;;;;;;0.30;0.30;;;;;;;16.81;52.62;101357.66;5230508;28;20044;-80
2022/07/27 03:53:12;;;;;;;0.40;0.40;;;;;;;16.78;52.38;101357.78;5231122;28;20068;-80
2022/07/27 03:55:43;;;;;;;0.50;0.50;;;;;;;16.75;52.66;101357.91;5226573;28;20045;-79
2022/07/27 03:58:14;;;;;;;0.45;0.45;;;;;;;16.71;53.00;101351.03;5229777;28;20028;-80
2022/07/27 04:00:44;;;;;;;0.25;0.25;;;;;;;16.70;52.46;101360.75;5230053;28;20048;-80
2022/07/27 04:03:16;;;;;;;0.22;0.22;;;;;;;16.65;52.56;101358.31;5231084;28;20025;-80
2022/07/27 04:05:47;;;;;;;0.30;0.30;;;;;;;16.66;52.48;101364.47;5211866;28;20056;-79
2022/07/27 04:08:20;;;;;;;0.20;0.20;;;;;;;16.62;52.32;101361.09;5231568;28;20066;-79
2022/07/27 04:10:50;;;;;;;0.30;0.30;;;;;;;16.59;53.04;101357.72;5232341;28;20446;-80
2022/07/27 04:13:20;;;;;;;1.27;0.60;;;;;;;16.59;52.59;101363.88;5227220;28;20028;-79
2022/07/27 04:15:51;;;;;;;0.40;0.40;;;;;;;16.58;52.35;101362.13;5228562;28;20053;-79
2022/07/27 04:18:22;;;;;;;0.20;0.20;;;;;;;16.56;52.73;101369.31;5228448;28;20455;-79
2022/07/27 04:20:52;;;;;;;3.55;0.40;;;;;;;16.55;52.61;101372.88;5225314;28;20053;-79
2022/07/27 04:23:23;;;;;;;0.93;0.85;;;;;;;16.54;52.77;101373.81;5228464;28;20436;-79
2022/07/27 04:25:53;;;;;;;0.20;0.20;;;;;;;16.53;53.21;101380.03;5223212;28;20062;-79
2022/07/27 04:28:24;;;;;;;0.20;0.20;;;;;;;16.52;53.00;101379.19;5225282;28;20043;-79
2022/07/27 04:30:54;;;;;;;0.20;0.20;;;;;;;16.53;52.97;101385.31;5208269;28;20455;-79
2022/07/27 04:33:24;;;;;;;0.20;0.20;;;;;;;16.55;52.71;101382.59;5225613;28;20584;-79
2022/07/27 04:35:55;;;;;;;0.20;0.20;;;;;;;16.51;53.21;101387.16;5208724;28;20407;-79
2022/07/27 04:38:25;;;;;;;0.68;0.68;;;;;;;16.51;53.41;101384.50;5225898;28;20118;-79
2022/07/27 04:40:56;;;;;;;0.40;0.40;;;;;;;16.50;53.05;101377.50;5226124;28;20182;-79
2022/07/27 04:43:26;;;;;;;0.30;0.30;;;;;;;16.50;52.91;101385.44;5226537;28;20487;-79
2022/07/27 04:45:57;;;;;;;0.20;0.20;;;;;;;16.52;52.68;101378.28;5225376;28;20587;-79
2022/07/27 04:48:27;;;;;;;0.40;0.40;;;;;;;16.49;52.97;101379.28;5226315;28;20044;-79
2022/07/27 04:50:58;;;;;;;0.65;0.65;;;;;;;16.49;53.04;101383.72;5208516;28;20041;-79
2022/07/27 04:53:29;;;;;;;0.60;0.60;;;;;;;16.48;53.06;101387.31;5208420;28;20048;-79
2022/07/27 04:55:59;;;;;;;0.30;0.30;;;;;;;16.49;52.77;101375.75;5225297;28;20068;-79
2022/07/27 04:58:30;;;;;;;1.58;0.88;;;;;;;16.44;53.19;101391.88;5206659;28;20106;-79
2022/07/27 05:01:00;;;;;;;0.30;0.30;;;;;;;16.49;54.44;101389.00;5225105;28;20041;-79
2022/07/27 05:03:31;;;;;;;0.50;0.50;;;;;;;16.44;53.33;101386.56;5207345;28;20041;-79
2022/07/27 05:06:01;;;;;;;0.50;0.50;;;;;;;16.45;53.36;101392.72;5205467;28;20656;-79
2022/07/27 05:08:32;;;;;;;0.40;0.40;;;;;;;16.42;53.80;101399.00;5224302;28;20111;-79
2022/07/27 05:11:02;;;;;;;0.95;0.93;;;;;;;16.42;54.39;101399.00;5219655;28;20568;-79
2022/07/27 05:13:36;;;;;;;0.90;0.90;;;;;;;16.42;54.20;101395.47;5206879;28;20124;-79
2022/07/27 05:16:09;;;;;;;0.77;0.65;;;;;;;16.42;54.47;101399.00;5188909;28;20119;-79
2022/07/27 05:18:39;;;;;;;0.57;0.57;;;;;;;16.39;55.67;101398.28;5224412;28;20146;-79
2022/07/27 05:21:10;;;;;;;0.50;0.50;;;;;;;16.39;55.01;101399.13;5223582;28;20066;-79
2022/07/27 05:23:41;;;;;;;0.50;0.50;;;;;;;16.43;55.66;101403.38;5218117;28;20036;-79
2022/07/27 05:26:11;;;;;;;0.60;0.60;;;;;;;16.46;55.16;101405.03;5221523;28;20565;-78
2022/07/27 05:28:42;;;;;;;0.50;0.50;;;;;;;16.42;54.61;101408.72;5226257;28;20040;-78
2022/07/27 05:31:13;;;;;;;0.68;0.68;;;;;;;16.42;54.21;101400.78;5225396;28;20062;-79
2022/07/27 05:33:44;;;;;;;0.52;0.52;;;;;;;16.39;54.87;101404.41;5225163;28;20036;-79
2022/07/27 05:36:15;;;;;;;0.55;0.43;;;;;;;16.36;55.79;101410.72;5224598;28;20076;-79
2022/07/27 05:38:46;;;;;;;1.48;0.63;;;;;;;16.43;55.66;101415.75;5224397;28;20044;-78
2022/07/27 05:41:22;;;;;;;0.30;0.30;;;;;;;16.36;56.69;101416.00;5227551;28;20028;-78
2022/07/27 05:43:53;;;;;;;1.23;1.13;;;;;;;16.32;57.11;101414.38;5204028;28;20533;-78
2022/07/27 05:46:24;;;;;;;0.45;0.45;;;;;;;16.39;56.83;101416.81;5220565;28;20053;-78
2022/07/27 05:48:55;;;;;;;0.47;0.47;;;;;;;16.36;57.56;101410.72;5226747;28;20039;-78
2022/07/27 05:51:25;;;;;;;0.57;0.43;;;;;;;16.39;57.05;101424.75;5208825;28;20044;-77
2022/07/27 05:53:58;;;;;;;0.20;0.20;;;;;;;16.35;57.58;101419.56;5221982;28;20403;-77
2022/07/27 05:56:29;;;;;;;;;;;;;;;16.35;56.29;101424.88;5224886;28;20045;-77
2022/07/27 05:59:02;;;;;;;0.38;0.38;;;;;;;16.35;56.59;101429.31;5223037;28;19992;-77
2022/07/27 06:01:32;;;;;;;;;;;;;;;16.39;56.23;101424.75;5225924;28;20037;-76
2022/07/27 06:04:03;;;;;;;0.43;0.43;;;;;;;16.41;56.36;101428.19;5212448;28;19920;-76
2022/07/27 06:09:27;;;;;;;0.20;0.20;;;;;;;16.33;58.14;101425.88;5226310;28;20032;-76
2022/07/27 06:11:58;;;;;;;0.20;0.20;;;;;;;16.35;58.16;101427.53;5227269;28;20569;-76
2022/07/27 06:14:28;;;;;;;0.60;0.60;;;;;;;16.45;57.71;101428.00;5193488;28;20029;-77
2022/07/27 06:16:59;;;;;;;0.75;0.73;;;;;;;16.43;58.42;101426.34;5212115;28;20079;-77
2022/07/27 06:19:30;;;;;;;0.20;0.20;;;;;;;16.45;56.69;101435.94;5230184;28;20062;-76
2022/07/27 06:22:01;;;;;;;0.50;0.50;;;;;;;16.48;57.14;101440.28;5224808;28;20032;-77
2022/07/27 06:24:32;;;;;;;0.20;0.20;;;;;;;16.49;56.37;101436.69;5190713;28;20345;-76
2022/07/27 06:27:03;;;;;;;0.20;0.20;;;;;;;16.55;57.68;101436.47;5229137;28;20071;-77
2022/07/27 06:29:33;;;;;;;0.20;0.20;;;;;;;16.56;56.52;101442.59;5208502;28;20115;-77
2022/07/27 06:32:04;;;;;;;0.20;0.20;;;;;;;16.54;56.32;101434.72;5211576;28;20522;-76
2022/07/27 06:34:35;;;;;;;0.25;0.25;;;;;;;16.60;57.13;101439.78;5224819;28;20042;-77
2022/07/27 06:37:05;;;;;;;0.50;0.50;;;;;;;16.55;56.77;101433.81;5230377;28;20029;-77
2022/07/27 06:39:36;;;;;;;0.20;0.20;;;;;;;16.53;57.14;101433.00;5194778;28;20036;-78
2022/07/27 06:42:07;;;;;;;0.63;0.63;;;;;;;16.57;56.55;101434.59;5231032;28;20059;-77
2022/07/27 06:44:38;;;;;;;0.20;0.20;;;;;;;16.62;55.92;101443.22;5211239;28;20071;-78
2022/07/27 06:47:08;;;;;;;0.30;0.30;;;;;;;16.61;56.24;101435.34;5229485;28;20025;-78
2022/07/27 06:49:39;;;;;;;1.40;0.65;;;;;;;16.65;55.92;101445.72;5211171;28;20025;-77
2022/07/27 06:52:09;;;;;;;0.20;0.20;;;;;;;16.67;56.15;101430.63;5231518;28;20036;-78
2022/07/27 06:54:40;;;;;;;0.20;0.20;;;;;;;16.69;56.16;101438.53;5209063;28;20040;-78
2022/07/27 06:57:10;;;;;;;0.88;0.85;;;;;;;16.70;55.96;101434.94;5213449;28;20034;-77
2022/07/27 06:59:41;;;;;;;0.22;0.22;;;;;;;16.75;55.63;101432.97;5225625;28;20052;-78
2022/07/27 07:02:11;;;;;;;1.55;1.05;;;;;;;16.78;55.43;101432.84;5230179;28;20071;-77
2022/07/27 07:04:42;;;;;;;0.20;0.20;;;;;;;16.83;55.78;101435.28;5225729;28;20132;-78
2022/07/27 07:07:13;;;;;;;0.32;0.32;;;;;;;16.83;55.71;101441.47;5229498;28;20092;-78
2022/07/27 07:09:43;;;;;;;0.20;0.20;;;;;;;16.85;55.90;101436.09;5209833;28;20086;-78
2022/07/27 07:12:14;;;;;;;1.48;0.93;;;;;;;16.89;55.45;101435.06;5212140;28;20565;-77
2022/07/27 07:14:44;;;;;;;0.22;0.22;;;;;;;16.92;55.62;101437.56;5227775;28;20033;-77
2022/07/27 07:17:15;;;;;;;0.28;0.28;;;;;;;16.95;55.51;101440.13;5214964;28;20072;-76
2022/07/27 07:19:45;;;;;;;0.20;0.20;;;;;;;16.91;55.66;101438.47;5209301;28;20570;-78
2022/07/27 07:22:15;;;;;;;1.38;0.57;;;;;;;17.02;55.59;101439.84;5229297;28;20025;-78
2022/07/27 07:24:46;;;;;;;0.40;0.40;;;;;;;17.09;55.02;101447.50;5223837;28;20116;-77
2022/07/27 07:27:19;;;;;;;0.20;0.20;;;;;;;17.05;55.28;101443.22;5210579;28;20042;-77
2022/07/27 07:29:50;;;;;;;0.20;0.20;;;;;;;17.03;55.39;101445.09;5191650;28;20040;-78
2022/07/27 07:32:23;;;;;;;0.40;0.40;;;;;;;17.10;55.21;101438.63;5229011;28;20044;-78
2022/07/27 07:35:03;;;;;;;0.20;0.20;;;;;;;17.15;54.97;101449.88;5209463;28;20128;-78
2022/07/27 07:37:34;;;;;;;0.20;0.20;;;;;;;17.19;54.80;101450.59;5212515;28;20048;-78
2022/07/27 07:40:06;;;;;;;0.20;0.20;;;;;;;17.15;54.77;101447.22;5193417;28;20224;-78
2022/07/27 07:42:52;;;;;;;0.30;0.30;;;;;;;17.22;54.70;101450.47;5210671;28;20043;-77
2022/07/27 07:45:28;;;;;;;0.20;0.20;;;;;;;17.25;54.83;101439.72;5227489;28;20044;-77
2022/07/27 07:48:01;;;;;;;0.30;0.30;;;;;;;17.24;54.46;101445.94;5225841;28;20039;-76
2022/07/27 07:50:31;;;;;;;;;;;;;;;17.23;53.92;101444.22;5228270;28;20048;-78
2022/07/27 07:53:02;;;;;;;0.85;0.85;;;;;;;17.22;54.13;101442.53;5229905;28;19920;-77
2022/07/27 07:55:33;;;;;;;0.28;0.28;;;;;;;17.26;54.36;101444.09;5211968;28;20055;-76
2022/07/27 07:58:03;;;;;;;0.20;0.20;;;;;;;17.26;54.15;101444.09;5226224;28;20044;-78
2022/07/27 08:00:34;;;;;;;0.20;0.20;;;;;;;17.30;54.22;101445.69;5228405;28;20033;-77
2022/07/27 08:03:04;;;;;;;0.20;0.20;;;;;;;17.41;53.94;101447.88;5227939;28;20044;-77
2022/07/27 08:05:35;;;;;;;0.40;0.40;;;;;;;17.47;53.74;101446.75;5227052;28;20040;-78
2022/07/27 08:08:05;;;;;;;0.30;0.30;;;;;;;17.49;53.64;101452.81;5210973;28;20479;-78
2022/07/27 08:10:36;;;;;;;0.30;0.30;;;;;;;17.54;53.84;101452.63;5230035;28;20234;-77
2022/07/27 08:13:07;;;;;;;0.30;0.30;;;;;;;17.58;53.63;101454.22;5229283;28;20483;-77
2022/07/27 08:15:38;;;;;;;0.20;0.20;;;;;;;17.64;53.29;101459.25;5228358;28;20490;-78
2022/07/27 08:18:08;;;;;;;0.20;0.20;;;;;;;17.71;52.66;101459.84;5228380;28;20075;-77
2022/07/27 08:20:39;;;;;;;0.25;0.25;;;;;;;17.69;53.04;101451.91;5227767;28;20151;-78
2022/07/27 08:23:11;;;;;;;0.20;0.20;;;;;;;17.78;52.73;101466.59;5228560;28;20037;-78
2022/07/27 08:25:42;;;;;;;1.25;0.57;;;;;;;17.81;52.31;101458.47;5228101;28;20044;-78
2022/07/27 08:28:12;;;;;;;0.20;0.20;;;;;;;17.82;52.64;101464.66;5227929;28;20086;-77
2022/07/27 08:30:43;;;;;;;0.50;0.38;;;;;;;17.97;51.65;101463.97;5227022;28;20327;-78
2022/07/27 08:33:14;;;;;;;0.25;0.25;;;;;;;17.91;52.11;101450.97;5225632;28;20032;-78
2022/07/27 08:35:45;;;;;;;0.40;0.40;;;;;;;17.93;52.14;101455.25;5207692;28;20033;-77
2022/07/27 08:38:15;;;;;;;0.70;0.50;;;;;;;18.04;52.31;101461.91;5226395;28;20033;-77
2022/07/27 08:40:47;;;;;;;0.30;0.30;;;;;;;18.17;51.64;101457.72;5221300;28;20094;-77
2022/07/27 08:43:19;;;;;;;0.32;0.32;;;;;;;18.21;50.90;101454.00;5188629;28;20021;-77
2022/07/27 08:46:00;;;;;;;0.27;0.27;;;;;;;18.19;51.50;101450.56;5205431;28;20037;-77
2022/07/27 08:48:30;;;;;;;0.63;0.63;;;;;;;18.25;51.39;101455.56;5225037;28;20294;-78
2022/07/27 08:51:01;;;;;;;0.20;0.20;;;;;;;18.29;50.86;101455.44;5225541;28;20040;-78
2022/07/27 08:53:32;;;;;;;2.85;0.73;;;;;;;18.31;50.67;101465.03;5206503;28;20128;-78
2022/07/27 08:56:03;;;;;;;2.45;0.65;;;;;;;18.28;51.24;101462.53;5208623;28;20043;-77
2022/07/27 08:58:34;;;;;;;1.95;0.95;;;;;;;18.27;50.95;101457.28;5226363;28;20435;-77
2022/07/27 09:01:04;;;;;;;0.20;0.20;;;;;;;18.29;51.12;101452.78;5226947;28;20086;-77
2022/07/27 09:03:35;;;;;;;4.28;1.27;;;;;;;18.37;50.86;101453.25;5224866;28;20352;-77
2022/07/27 09:06:06;;;;;;;0.40;0.40;;;;;;;18.39;50.33;101456.69;5211614;28;20181;-78
2022/07/27 09:08:40;;;;;;;0.38;0.35;;;;;;;18.39;50.36;101451.38;5208512;28;20179;-76
2022/07/27 09:11:14;;;;;;;0.20;0.20;;;;;;;18.43;50.31;101458.28;5228362;28;20044;-77
2022/07/27 09:13:45;;;;;;;0.17;0.17;;;;;;;18.46;50.67;101459.91;5208507;28;20037;-76
2022/07/27 09:16:15;;;;;;;0.30;0.30;;;;;;;18.51;50.34;101456.09;5209640;28;20052;-77
2022/07/27 09:18:47;;;;;;;0.20;0.20;;;;;;;18.49;50.88;101463.28;5229728;28;20050;-77
2022/07/27 09:21:22;;;;;;;0.20;0.20;;;;;;;18.52;50.82;101451.63;5213372;28;20044;-77
2022/07/27 09:23:56;;;;;;;0.30;0.30;;;;;;;18.52;50.73;101452.50;5212166;28;20724;-77
2022/07/27 09:26:28;;;;;;;0.20;0.20;;;;;;;18.51;49.41;101456.09;5224792;28;20040;-77
2022/07/27 09:29:04;;;;;;;0.20;0.20;;;;;;;18.56;49.53;101453.22;5226268;28;20457;-77
2022/07/27 09:31:45;;;;;;;0.30;0.30;;;;;;;18.56;49.99;101453.22;5225949;28;20055;-78
2022/07/27 09:34:37;;;;;;;0.40;0.40;;;;;;;18.63;50.01;101453.78;5224032;28;20372;-76
2022/07/27 09:37:08;;;;;;;0.20;0.20;;;;;;;18.59;49.00;101452.19;5222178;28;20067;-75
2022/07/27 09:39:38;;;;;;;0.20;0.20;;;;;;;18.75;48.35;101457.63;5224669;28;20028;-76
2022/07/27 09:42:17;;;;;;;0.32;0.30;;;;;;;18.77;49.41;101450.41;5227837;28;20106;-76
2022/07/27 09:44:48;;;;;;;0.10;0.10;;;;;;;18.74;49.85;101446.13;5223694;28;20082;-74
2022/07/27 09:47:26;;;;;;;0.20;0.20;;;;;;;18.90;49.45;101442.69;5224070;28;20138;-76
2022/07/27 09:50:18;;;;;;;0.20;0.20;;;;;;;18.85;49.87;101438.47;5225025;28;20403;-75
2022/07/27 09:52:49;;;;;;;0.22;0.22;;;;;;;18.90;49.31;101445.34;5228380;28;20058;-75
2022/07/27 09:55:23;;;;;;;0.20;0.20;;;;;;;18.94;48.50;101441.63;5206226;28;20529;-75
2022/07/27 09:57:56;;;;;;;0.30;0.30;;;;;;;19.07;49.10;101447.19;5224256;28;20040;-76
2022/07/27 10:00:26;;;;;;;0.10;0.10;;;;;;;19.02;49.26;101455.41;5224792;28;20036;-76
2022/07/27 10:02:58;;;;;;;0.20;0.20;;;;;;;19.03;49.58;101462.44;5223008;28;20395;-76
2022/07/27 10:05:29;;;;;;;0.30;0.30;;;;;;;19.07;49.48;101456.03;5225897;28;20068;-76
2022/07/27 10:07:59;;;;;;;0.20;0.20;;;;;;;19.18;48.86;101460.78;5226692;28;20029;-76
2022/07/27 10:10:30;;;;;;;0.20;0.20;;;;;;;19.17;48.78;101462.59;5221566;28;20116;-76
2022/07/27 10:13:00;;;;;;;0.40;0.40;;;;;;;19.26;48.97;101457.75;5225096;28;20124;-76
2022/07/27 10:15:31;;;;;;;0.45;0.45;;;;;;;19.24;48.75;101457.81;5220652;28;20678;-76
2022/07/27 10:18:09;;;;;;;0.40;0.40;;;;;;;19.35;48.61;101462.59;5224456;28;20032;-76
2022/07/27 10:20:43;;;;;;;0.30;0.30;;;;;;;19.41;48.29;101456.09;5226778;28;20088;-75
2022/07/27 10:23:33;;;;;;;0.20;0.20;;;;;;;19.43;48.18;101459.50;5225901;28;20133;-74
2022/07/27 10:26:13;;;;;;;0.25;0.25;;;;;;;19.47;48.47;101472.56;5208535;28;20181;-75
2022/07/27 10:28:58;;;;;;;0.20;0.20;;;;;;;19.47;48.60;101464.59;5209071;28;20037;-75
2022/07/27 10:31:36;;;;;;;0.20;0.20;;;;;;;19.55;48.93;101468.63;5223423;28;20518;-74
2022/07/27 10:34:09;;;;;;;0.20;0.20;;;;;;;19.56;48.04;101465.91;5224694;28;20041;-75
2022/07/27 10:36:51;;;;;;;0.40;0.40;;;;;;;19.59;47.59;101467.53;5224370;28;20059;-74
2022/07/27 10:39:33;;;;;;;0.88;0.88;;;;;;;19.66;47.71;101461.81;5226500;28;20029;-76
2022/07/27 10:42:18;;;;;;;0.30;0.30;;;;;;;19.71;47.73;101463.38;5224655;28;20040;-76
2022/07/27 10:44:58;;;;;;;0.30;0.30;;;;;;;19.73;48.13;101465.00;5219251;28;20546;-75
2022/07/27 10:47:49;;;;;;;0.20;0.20;;;;;;;19.83;47.79;101465.38;5225573;28;20542;-75
2022/07/27 10:50:22;;;;;;;0.90;0.68;;;;;;;19.81;47.75;101457.44;5222481;28;20044;-75
2022/07/27 10:53:05;;;;;;;0.20;0.20;;;;;;;19.89;47.55;101458.88;5226211;28;20032;-76
2022/07/27 10:55:35;;;;;;;0.20;0.20;;;;;;;19.90;46.98;101457.94;5206106;28;20048;-76
2022/07/27 10:58:31;;;;;;;0.25;0.25;;;;;;;19.94;47.72;101459.50;5227189;28;20043;-76
2022/07/27 11:01:07;;;;;;;0.13;0.13;;;;;;;20.00;47.12;101461.81;5226111;28;20143;-76
2022/07/27 11:03:38;;;;;;;0.20;0.20;;;;;;;19.99;46.39;101454.75;5221504;28;20505;-76
2022/07/27 11:06:21;;;;;;;0.20;0.20;;;;;;;20.16;46.49;101444.97;5221190;28;20344;-75
2022/07/27 11:08:53;;;;;;;0.65;0.65;;;;;;;20.16;46.03;101439.66;5224544;28;20395;-75
2022/07/27 11:11:24;;;;;;;0.20;0.20;;;;;;;20.24;45.11;101442.72;5203056;28;20036;-76
2022/07/27 11:13:57;;;;;;;0.20;0.20;;;;;;;20.32;45.86;101432.50;5223288;28;20029;-76
2022/07/27 11:16:29;;;;;;;0.20;0.20;;;;;;;20.41;45.41;101428.47;5226069;28;20052;-75
2022/07/27 11:19:03;;;;;;;0.40;0.40;;;;;;;20.45;45.87;101428.16;5223971;28;20057;-75
2022/07/27 11:21:36;;;;;;;0.98;0.60;;;;;;;20.57;46.10;101434.63;5224614;28;20045;-75
2022/07/27 11:24:16;;;;;;;0.32;0.32;;;;;;;20.64;44.37;101435.09;5224036;28;20060;-76
2022/07/27 11:26:49;;;;;;;0.88;0.70;;;;;;;20.70;43.71;101425.91;5219497;28;20437;-76
2022/07/27 11:29:21;;;;;;;;;;;;;;;20.70;44.61;101426.75;5225786;28;20129;-75
2022/07/27 11:31:56;;;;;;;0.20;0.20;;;;;;;20.82;43.92;101427.00;5222459;28;19916;-75
2022/07/27 11:34:29;;;;;;;0.20;0.20;;;;;;;20.75;44.07;101426.50;5224303;28;20033;-75
2022/07/27 11:37:02;;;;;;;0.30;0.30;;;;;;;20.84;44.09;101417.97;5223078;28;20310;-76
2022/07/27 11:39:33;;;;;;;0.30;0.30;;;;;;;20.84;44.79;101422.44;5206061;28;20025;-75
2022/07/27 11:42:04;;;;;;;0.30;0.30;;;;;;;20.84;44.76;101412.63;5207372;28;20037;-76
2022/07/27 11:44:37;;;;;;;0.55;0.55;;;;;;;20.80;43.72;101411.13;5221774;28;20040;-75
2022/07/27 11:47:18;;;;;;;0.20;0.20;;;;;;;20.81;44.53;101411.97;5207619;28;20028;-76
2022/07/27 11:49:49;;;;;;;0.20;0.20;;;;;;;20.86;44.37;101404.56;5223826;28;20145;-76
2022/07/27 11:52:19;;;;;;;0.40;0.40;;;;;;;20.85;44.51;101397.50;5225069;28;20119;-76
2022/07/27 11:54:51;;;;;;;0.25;0.25;;;;;;;20.89;43.87;101393.69;5221508;28;20075;-76